Time;durP1;ratioP1;P1;durP2;ratioP2;P2;SDS_P1;SDS_P2;PMS_P1;PMS_P2;Temp;Humidity;BMP_temperature;BMP_pressure;BME280_temperature;BME280_humidity;BME280_pressure;Samples;Min_cycle;Max_cycle;Signal;HPM_P1;HPM_P2
2023/08/08 00:00:38;;;;;;;1.48;0.95;;;13.80;99.90;;;;;;4807095;29;20087;-95
2023/08/08 00:03:08;;;;;;;3.40;1.20;;;13.70;99.90;;;;;;4830110;29;20046;-96
2023/08/08 00:05:39;;;;;;;2.78;1.10;;;13.70;99.90;;;;;;4817806;29;20042;-96
2023/08/08 00:08:06;;;;;;;2.25;1.00;;;13.70;99.90;;;;;;4834909;29;20050;-95
2023/08/08 00:10:32;;;;;;;4.23;1.10;;;13.50;99.90;;;;;;4817078;29;20048;-96
2023/08/08 00:12:58;;;;;;;5.60;1.00;;;13.70;99.90;;;;;;4820739;29;21032;-96
2023/08/08 00:15:24;;;;;;;2.95;1.10;;;13.80;99.90;;;;;;4816932;29;20046;-96
2023/08/08 00:17:58;;;;;;;5.22;1.23;;;13.60;99.90;;;;;;4833478;29;20078;-96
2023/08/08 00:20:24;;;;;;;4.25;1.02;;;13.70;99.90;;;;;;4812839;29;20043;-96
2023/08/08 00:22:49;;;;;;;2.13;1.15;;;13.00;99.90;;;;;;4810438;29;20051;-96
2023/08/08 00:25:15;;;;;;;3.70;1.20;;;15.00;99.90;;;;;;4830996;29;20151;-96
2023/08/08 00:27:43;;;;;;;3.00;1.20;;;13.50;99.90;;;;;;4815713;29;20058;-96
2023/08/08 00:30:12;;;;;;;2.67;1.20;;;13.60;99.90;;;;;;4797097;29;20807;-95
2023/08/08 00:32:38;;;;;;;2.88;0.93;;;13.60;99.90;;;;;;4800083;29;20050;-95
2023/08/08 00:35:07;;;;;;;5.10;1.33;;;13.60;99.90;;;;;;4831597;29;20124;-95
2023/08/08 00:37:33;;;;;;;4.30;0.95;;;13.50;99.90;;;;;;4801858;29;20569;-95
2023/08/08 00:39:58;;;;;;;2.00;1.10;;;13.70;99.90;;;;;;4809355;29;20038;-96
2023/08/08 00:42:24;;;;;;;1.75;1.00;;;13.70;99.90;;;;;;4818301;29;20057;-95
2023/08/08 00:44:50;;;;;;;2.88;1.20;;;13.50;99.90;;;;;;4830756;29;20041;-95
2023/08/08 00:47:19;;;;;;;3.03;1.48;;;13.50;99.90;;;;;;4815467;29;20045;-95
2023/08/08 00:49:48;;;;;;;2.03;1.00;;;13.50;99.90;;;;;;4829330;29;20054;-96
2023/08/08 00:52:17;;;;;;;3.60;1.40;;;13.70;99.90;;;;;;4806814;29;20288;-96
2023/08/08 00:54:43;;;;;;;4.03;1.30;;;13.70;99.90;;;;;;4814360;29;20042;-96
2023/08/08 00:57:09;;;;;;;3.75;1.25;;;13.50;99.90;;;;;;4826995;29;20057;-95
2023/08/08 00:59:35;;;;;;;3.95;1.02;;;13.40;99.90;;;;;;4818743;29;20050;-95
2023/08/08 01:02:01;;;;;;;2.75;1.15;;;13.50;99.90;;;;;;4818914;29;20048;-96
2023/08/08 01:04:27;;;;;;;2.83;1.20;;;13.90;99.90;;;;;;4837986;29;20061;-96
2023/08/08 01:07:13;;;;;;;2.50;0.98;;;15.30;99.90;;;;;;4832034;29;20418;-96
2023/08/08 01:09:48;;;;;;;2.55;1.13;;;13.40;99.90;;;;;;4832737;29;20050;-95
2023/08/08 01:12:22;;;;;;;3.50;1.10;;;13.40;99.90;;;;;;4815702;29;20104;-96
2023/08/08 01:14:52;;;;;;;2.72;1.23;;;13.30;99.90;;;;;;4811059;29;20041;-96
2023/08/08 01:17:19;;;;;;;2.42;1.13;;;12.20;99.90;;;;;;4815211;29;20060;-96
2023/08/08 01:19:45;;;;;;;2.60;1.15;;;12.50;99.90;;;;;;4813977;29;20046;-95
2023/08/08 01:22:23;;;;;;;2.13;1.15;;;13.40;99.90;;;;;;4830069;29;20049;-96
2023/08/08 01:24:49;;;;;;;;;;;13.40;99.90;;;;;;4826226;29;20054;-96
2023/08/08 01:27:16;;;;;;;2.45;1.15;;;13.60;99.90;;;;;;4834228;29;19920;-96
2023/08/08 01:29:42;;;;;;;3.25;1.35;;;13.40;99.90;;;;;;4800732;29;20195;-96
2023/08/08 01:32:10;;;;;;;2.97;1.35;;;13.40;99.90;;;;;;4814595;29;20049;-96
2023/08/08 01:34:41;;;;;;;2.90;0.98;;;14.30;99.90;;;;;;4828602;29;20046;-96
2023/08/08 01:37:23;;;;;;;1.60;1.02;;;15.00;99.90;;;;;;4813444;29;20056;-95
2023/08/08 01:39:51;;;;;;;2.72;1.38;;;13.40;99.90;;;;;;4806183;29;20451;-96
2023/08/08 01:42:27;;;;;;;2.55;0.90;;;13.30;99.90;;;;;;4813523;29;20098;-95
2023/08/08 01:44:54;;;;;;;2.90;1.10;;;12.20;99.90;;;;;;4799448;29;20042;-96
2023/08/08 01:47:20;;;;;;;3.15;1.20;;;13.80;99.90;;;;;;4814548;29;20049;-95
2023/08/08 01:49:46;;;;;;;4.18;1.13;;;13.30;99.90;;;;;;4818294;29;20054;-95
2023/08/08 01:52:12;;;;;;;2.10;1.10;;;13.30;99.90;;;;;;4815299;29;20371;-96
2023/08/08 01:54:38;;;;;;;2.53;1.08;;;13.20;99.90;;;;;;4813614;29;20073;-95
2023/08/08 01:57:04;;;;;;;4.55;1.10;;;13.30;99.90;;;;;;4812980;29;20637;-96
2023/08/08 01:59:33;;;;;;;3.78;1.00;;;13.40;99.90;;;;;;4802091;29;20061;-95
2023/08/08 02:01:59;;;;;;;2.63;1.23;;;13.40;99.90;;;;;;4817534;29;20049;-95
2023/08/08 02:04:27;;;;;;;2.25;1.15;;;13.40;99.90;;;;;;4813843;29;20154;-95
2023/08/08 02:06:53;;;;;;;2.17;1.20;;;13.00;99.90;;;;;;4840075;29;20046;-96
2023/08/08 02:09:21;;;;;;;3.00;1.13;;;13.40;99.90;;;;;;4814086;29;20056;-96
2023/08/08 02:11:47;;;;;;;2.47;1.20;;;13.40;99.90;;;;;;4800756;29;20046;-96
2023/08/08 02:14:13;;;;;;;2.45;1.15;;;13.40;99.90;;;;;;4828932;29;20482;-96
2023/08/08 02:16:42;;;;;;;2.65;1.17;;;13.40;99.90;;;;;;4815305;29;20203;-96
2023/08/08 02:19:07;;;;;;;3.28;1.15;;;13.50;99.90;;;;;;4813861;29;20442;-96
2023/08/08 02:21:33;;;;;;;2.53;1.42;;;13.50;99.90;;;;;;4827902;29;20058;-96
2023/08/08 02:23:59;;;;;;;2.88;1.20;;;13.60;99.90;;;;;;4818245;29;20097;-95
2023/08/08 02:26:25;;;;;;;3.47;1.30;;;13.60;99.90;;;;;;4818692;29;20038;-95
2023/08/08 02:28:54;;;;;;;2.53;1.13;;;13.60;99.90;;;;;;4818974;29;20660;-95
2023/08/08 02:31:22;;;;;;;4.07;1.52;;;13.60;99.90;;;;;;4818153;29;20135;-96
2023/08/08 02:33:52;;;;;;;2.85;1.40;;;13.70;99.90;;;;;;4810833;29;20053;-94
2023/08/08 02:36:21;;;;;;;5.00;2.15;;;13.70;99.90;;;;;;4830340;29;20041;-96
2023/08/08 02:38:47;;;;;;;2.92;1.13;;;13.70;99.90;;;;;;4797926;29;20050;-96
2023/08/08 02:41:13;;;;;;;3.17;1.20;;;13.80;99.90;;;;;;4823686;29;20402;-96
2023/08/08 02:43:39;;;;;;;5.00;1.20;;;13.70;99.90;;;;;;4818452;29;20045;-96
2023/08/08 02:46:04;;;;;;;3.67;1.55;;;13.40;99.90;;;;;;4823371;29;20092;-96
2023/08/08 02:48:31;;;;;;;2.22;1.23;;;13.80;99.90;;;;;;4797547;29;20085;-96
2023/08/08 02:50:57;;;;;;;1.93;1.23;;;13.80;99.90;;;;;;4814528;29;20045;-96
2023/08/08 02:53:22;;;;;;;3.10;1.10;;;13.70;99.90;;;;;;4798111;29;20045;-96
2023/08/08 02:55:50;;;;;;;1.98;1.20;;;13.70;99.90;;;;;;4812190;29;20338;-95
2023/08/08 02:58:16;;;;;;;5.10;1.45;;;13.70;99.90;;;;;;4811915;29;20133;-95
2023/08/08 03:00:42;;;;;;;5.47;2.20;;;13.70;99.90;;;;;;4793559;29;20676;-95
2023/08/08 03:03:08;;;;;;;4.53;1.25;;;13.70;99.90;;;;;;4811538;29;20593;-96
2023/08/08 03:05:34;;;;;;;2.75;1.20;;;13.70;99.90;;;;;;4807411;29;20076;-95
2023/08/08 03:08:00;;;;;;;4.97;1.23;;;13.70;99.90;;;;;;4796065;29;20079;-95
2023/08/08 03:10:25;;;;;;;4.63;1.38;;;13.60;99.90;;;;;;4796057;29;20038;-95
2023/08/08 03:12:51;;;;;;;2.35;0.95;;;13.70;99.90;;;;;;4796527;29;20635;-94
2023/08/08 03:15:17;;;;;;;4.90;1.02;;;13.70;99.90;;;;;;4793605;29;20042;-94
2023/08/08 03:17:49;;;;;;;3.40;0.98;;;13.70;99.90;;;;;;4808410;29;20569;-95
2023/08/08 03:20:17;;;;;;;2.95;1.25;;;13.70;99.90;;;;;;4810828;29;20084;-96
2023/08/08 03:22:43;;;;;;;2.92;1.00;;;13.70;99.90;;;;;;4811389;29;20052;-94
2023/08/08 03:25:09;;;;;;;2.03;0.80;;;13.70;99.90;;;;;;4811103;29;20497;-95
2023/08/08 03:27:35;;;;;;;1.77;0.80;;;13.70;99.90;;;;;;4811360;29;20044;-94
2023/08/08 03:30:04;;;;;;;4.00;1.10;;;13.70;99.90;;;;;;4814981;29;20045;-94
2023/08/08 03:32:30;;;;;;;3.90;0.80;;;13.70;99.90;;;;;;4823798;29;20132;-94
2023/08/08 03:34:56;;;;;;;2.00;0.93;;;13.70;99.90;;;;;;4806699;29;20465;-94
2023/08/08 03:37:22;;;;;;;2.08;0.85;;;13.70;99.90;;;;;;4808080;29;20049;-95
2023/08/08 03:39:47;;;;;;;1.92;1.00;;;13.70;99.90;;;;;;4804962;29;20054;-94
2023/08/08 03:42:16;;;;;;;3.03;0.77;;;13.70;99.90;;;;;;4796358;29;20081;-93
2023/08/08 03:44:41;;;;;;;1.80;0.80;;;13.70;99.90;;;;;;4798088;29;20042;-94
2023/08/08 03:47:07;;;;;;;1.83;0.60;;;13.60;99.90;;;;;;4813254;29;20057;-94
2023/08/08 03:49:33;;;;;;;2.05;0.70;;;13.60;99.90;;;;;;4824494;29;20045;-95
2023/08/08 03:51:59;;;;;;;4.22;0.80;;;13.80;99.90;;;;;;4786597;29;20121;-96
2023/08/08 03:54:25;;;;;;;2.28;0.80;;;13.60;99.90;;;;;;4828853;29;20042;-96
2023/08/08 03:56:50;;;;;;;1.20;0.73;;;13.60;99.90;;;;;;4813834;29;20459;-95
2023/08/08 03:59:16;;;;;;;4.00;0.70;;;13.50;99.90;;;;;;4814301;29;20053;-95
2023/08/08 04:01:42;;;;;;;2.72;0.80;;;13.50;99.90;;;;;;4800683;29;20041;-95
2023/08/08 04:04:08;;;;;;;2.15;0.73;;;13.50;99.90;;;;;;4799107;29;20050;-95
2023/08/08 04:06:33;;;;;;;1.63;0.63;;;13.50;99.90;;;;;;4830625;29;20122;-96
2023/08/08 04:09:00;;;;;;;2.15;0.90;;;13.50;99.90;;;;;;4799437;29;20110;-95
2023/08/08 04:11:26;;;;;;;2.25;0.60;;;13.50;99.90;;;;;;4814768;29;20129;-95
2023/08/08 04:13:52;;;;;;;2.75;0.70;;;13.40;99.90;;;;;;4829003;29;20121;-96
2023/08/08 04:16:18;;;;;;;1.75;0.80;;;13.40;99.90;;;;;;4827836;29;20050;-95
2023/08/08 04:18:44;;;;;;;3.38;0.90;;;13.40;99.90;;;;;;4806743;29;20049;-95
2023/08/08 04:21:10;;;;;;;1.73;0.60;;;13.20;99.90;;;;;;4811730;29;20077;-95
2023/08/08 04:23:36;;;;;;;2.35;0.80;;;13.10;99.90;;;;;;4806395;29;20050;-96
2023/08/08 04:26:01;;;;;;;2.97;0.70;;;13.30;99.90;;;;;;4814920;29;20073;-96
2023/08/08 04:28:27;;;;;;;4.28;0.82;;;13.40;99.90;;;;;;4813663;29;20106;-95
2023/08/08 04:30:53;;;;;;;1.75;0.80;;;13.30;99.90;;;;;;4815925;29;20038;-94
2023/08/08 04:33:19;;;;;;;3.70;0.80;;;13.40;99.90;;;;;;4799788;29;20038;-95
2023/08/08 04:35:45;;;;;;;1.48;0.60;;;13.30;99.90;;;;;;4798950;29;20037;-95
2023/08/08 04:38:15;;;;;;;4.70;0.88;;;13.40;99.90;;;;;;4829483;29;20041;-94
2023/08/08 04:40:41;;;;;;;3.55;0.93;;;13.40;99.90;;;;;;4812348;29;20049;-96
2023/08/08 04:43:06;;;;;;;3.47;0.80;;;13.40;99.90;;;;;;4814883;29;20057;-95
2023/08/08 04:45:33;;;;;;;2.33;0.80;;;13.40;99.90;;;;;;4813661;29;20042;-94
2023/08/08 04:47:59;;;;;;;2.95;0.80;;;13.40;99.90;;;;;;4813540;29;20050;-94
2023/08/08 04:50:24;;;;;;;3.05;0.70;;;13.50;99.90;;;;;;4788711;29;20069;-93
2023/08/08 04:52:50;;;;;;;2.75;0.70;;;13.50;99.90;;;;;;4813155;29;20125;-93
2023/08/08 04:55:16;;;;;;;2.25;0.60;;;13.60;99.90;;;;;;4812672;29;20038;-95
2023/08/08 04:57:42;;;;;;;1.63;0.60;;;13.70;99.90;;;;;;4809991;29;20491;-95
2023/08/08 05:00:12;;;;;;;3.75;0.77;;;13.80;99.90;;;;;;4813918;29;20049;-95
2023/08/08 05:02:39;;;;;;;3.35;0.70;;;13.90;99.90;;;;;;4819354;29;20046;-96
2023/08/08 05:05:05;;;;;;;5.63;1.00;;;14.10;99.90;;;;;;4810839;29;20053;-95
2023/08/08 05:07:31;;;;;;;1.58;0.60;;;14.20;99.90;;;;;;4821011;29;20042;-96
2023/08/08 05:09:57;;;;;;;2.85;0.60;;;14.40;99.90;;;;;;4811771;29;20225;-96
2023/08/08 05:12:23;;;;;;;1.48;0.60;;;14.90;99.90;;;;;;4809327;29;20038;-94
2023/08/08 05:14:48;;;;;;;2.15;0.68;;;14.50;99.90;;;;;;4816084;29;20099;-95
2023/08/08 05:17:14;;;;;;;1.25;0.60;;;14.60;99.90;;;;;;4812041;29;20114;-95
2023/08/08 05:19:40;;;;;;;1.17;0.50;;;14.80;99.90;;;;;;4814197;29;20106;-95
2023/08/08 05:22:06;;;;;;;1.30;0.55;;;15.20;99.90;;;;;;4816045;29;20103;-96
2023/08/08 05:24:32;;;;;;;2.58;0.60;;;15.70;99.90;;;;;;4809799;29;20158;-95
2023/08/08 05:26:58;;;;;;;2.33;0.82;;;16.20;99.90;;;;;;4812387;29;20042;-95
2023/08/08 05:29:23;;;;;;;3.10;0.65;;;16.00;99.90;;;;;;4797168;29;20057;-96
2023/08/08 05:31:49;;;;;;;1.63;0.63;;;16.10;99.90;;;;;;4816013;29;20053;-93
2023/08/08 05:34:15;;;;;;;4.28;0.50;;;16.00;99.90;;;;;;4789509;29;20057;-95
2023/08/08 05:36:41;;;;;;;2.28;0.55;;;15.90;99.90;;;;;;4797849;29;20077;-95
2023/08/08 05:39:07;;;;;;;2.50;0.60;;;16.20;99.90;;;;;;4811488;29;20584;-94
2023/08/08 05:41:33;;;;;;;2.90;0.63;;;17.20;99.90;;;;;;4827295;29;20128;-95
2023/08/08 05:43:59;;;;;;;4.50;0.77;;;18.30;99.90;;;;;;4812487;29;20125;-95
2023/08/08 05:46:25;;;;;;;1.83;0.52;;;18.70;99.90;;;;;;4813307;29;20490;-95
2023/08/08 05:48:51;;;;;;;3.75;0.63;;;18.50;99.90;;;;;;4827654;29;20471;-96
2023/08/08 05:51:17;;;;;;;2.00;0.65;;;18.10;99.90;;;;;;4820580;29;20133;-95
2023/08/08 05:53:43;;;;;;;2.38;0.60;;;17.90;99.90;;;;;;4803535;29;20038;-96
2023/08/08 05:56:08;;;;;;;3.08;0.80;;;18.00;99.90;;;;;;4811965;29;20521;-96
2023/08/08 05:58:36;;;;;;;3.75;0.65;;;18.30;99.90;;;;;;4811888;29;20065;-92
2023/08/08 06:01:06;;;;;;;6.07;1.10;;;18.40;99.90;;;;;;4812396;29;20049;-93
2023/08/08 06:03:32;;;;;;;3.30;0.68;;;18.80;99.90;;;;;;4811734;29;20133;-94
2023/08/08 06:05:58;;;;;;;2.67;0.60;;;18.80;99.90;;;;;;4813448;29;20861;-95
2023/08/08 06:08:23;;;;;;;0.95;0.50;;;18.30;99.90;;;;;;4813386;29;20129;-94
2023/08/08 06:10:54;;;;;;;2.53;0.68;;;17.80;99.90;;;;;;4815798;29;20053;-95
2023/08/08 06:13:20;;;;;;;4.75;1.15;;;17.90;99.90;;;;;;4814368;29;20049;-96
2023/08/08 06:15:46;;;;;;;2.47;0.77;;;18.80;99.90;;;;;;4815069;29;20052;-95
2023/08/08 06:18:15;;;;;;;5.32;0.60;;;19.80;99.90;;;;;;4811837;29;20509;-94
2023/08/08 06:20:41;;;;;;;2.58;0.60;;;20.70;99.90;;;;;;4820087;29;20045;-94
2023/08/08 06:23:07;;;;;;;4.10;0.70;;;21.50;99.90;;;;;;4811446;29;20045;-94
2023/08/08 06:28:53;;;;;;;1.40;0.43;;;22.80;99.90;;;;;;4822067;29;20050;-95
2023/08/08 06:31:19;;;;;;;3.72;0.77;;;23.20;99.90;;;;;;4813854;29;20065;-95
2023/08/08 06:33:45;;;;;;;2.95;0.60;;;23.70;99.90;;;;;;4810881;29;20046;-96
2023/08/08 06:36:11;;;;;;;3.65;0.65;;;23.90;99.90;;;;;;4827246;29;20121;-94
2023/08/08 06:38:37;;;;;;;2.90;0.70;;;24.20;99.90;;;;;;4813520;29;20049;-94
2023/08/08 06:41:03;;;;;;;3.93;0.70;;;24.60;99.90;;;;;;4800586;29;20189;-94
2023/08/08 06:43:43;;;;;;;1.33;0.57;;;24.90;99.90;;;;;;4811606;29;20046;-94
2023/08/08 06:46:21;;;;;;;3.58;1.00;;;25.00;99.90;;;;;;4830664;29;20490;-93
2023/08/08 06:49:01;;;;;;;1.52;0.50;;;25.10;99.90;;;;;;4815409;29;20665;-95
2023/08/08 06:51:35;;;;;;;1.33;0.43;;;25.20;99.90;;;;;;4800621;29;20114;-93
2023/08/08 06:54:03;;;;;;;1.35;0.60;;;25.30;99.90;;;;;;4812968;29;20045;-94
2023/08/08 06:56:32;;;;;;;2.45;0.60;;;25.40;99.90;;;;;;4817088;29;20202;-93
2023/08/08 06:59:00;;;;;;;2.63;0.65;;;25.30;99.90;;;;;;4795397;29;20049;-94
2023/08/08 07:01:39;;;;;;;3.08;0.55;;;25.40;99.90;;;;;;4821905;29;20045;-94
2023/08/08 07:04:27;;;;;;;;;;;25.40;99.90;;;;;;4832229;29;20523;-94
2023/08/08 07:11:06;;;;;;;3.58;0.63;;;25.10;99.90;;;;;;4821648;29;20047;-94
2023/08/08 07:28:32;;;;;;;1.35;0.45;;;24.00;99.90;;;;;;4761539;30;20536;-96
2023/08/08 07:31:31;;;;;;;4.25;0.73;;;24.30;99.90;;;;;;4748521;30;20525;-94
2023/08/08 07:35:15;;;;;;;;;;;;;;;;;;;;;
2023/08/08 07:42:11;;;;;;;3.47;0.73;;;23.60;99.90;;;;;;4609747;30;20058;-92
2023/08/08 07:44:42;;;;;;;2.15;0.57;;;22.70;99.90;;;;;;4666139;30;20072;-94
2023/08/08 07:47:11;;;;;;;1.88;0.45;;;22.00;99.90;;;;;;4738847;30;20104;-94
2023/08/08 07:50:06;;;;;;;;;;;;;;;;;;;;;
2023/08/08 07:53:01;;;;;;;4.95;0.70;;;20.60;99.90;;;;;;4742947;30;20575;-95
2023/08/08 07:55:49;;;;;;;;;;;;;;;;;;;;;
2023/08/08 07:58:34;;;;;;;2.97;0.75;;;20.10;99.90;;;;;;4760788;30;20114;-96
2023/08/08 08:01:18;;;;;;;3.30;0.63;;;20.40;99.90;;;;;;4757837;30;20097;-96
2023/08/08 08:03:50;;;;;;;3.35;0.82;;;20.40;99.90;;;;;;4795064;29;20050;-92
2023/08/08 08:06:30;;;;;;;2.50;0.50;;;19.90;99.90;;;;;;4816529;29;20074;-95
2023/08/08 08:08:56;;;;;;;2.83;0.70;;;19.20;99.90;;;;;;4805692;29;20045;-94
2023/08/08 08:11:22;;;;;;;2.13;0.50;;;19.00;99.90;;;;;;4799971;29;20037;-93
2023/08/08 08:13:50;;;;;;;6.22;0.82;;;18.80;99.90;;;;;;4816206;29;20078;-93
2023/08/08 08:16:19;;;;;;;2.42;0.50;;;19.20;99.90;;;;;;4780762;29;20089;-95
2023/08/08 08:18:57;;;;;;;4.70;0.77;;;19.30;99.90;;;;;;4824069;29;20076;-95
2023/08/08 08:21:25;;;;;;;1.98;0.55;;;19.00;99.90;;;;;;4800715;29;20042;-95
2023/08/08 08:24:11;;;;;;;3.25;0.70;;;18.70;99.90;;;;;;4801728;29;20443;-95
2023/08/08 08:26:37;;;;;;;4.85;0.60;;;18.60;99.90;;;;;;4813301;29;20049;-87
2023/08/08 08:29:02;;;;;;;4.18;0.60;;;18.30;99.90;;;;;;4821781;29;20608;-86
2023/08/08 08:31:28;;;;;;;2.08;0.50;;;18.20;99.90;;;;;;4826002;29;20042;-88
2023/08/08 08:33:55;;;;;;;2.72;0.70;;;18.10;99.90;;;;;;4797701;29;20042;-88
2023/08/08 08:36:21;;;;;;;3.63;0.80;;;18.10;99.90;;;;;;4834054;29;20133;-90
2023/08/08 08:38:50;;;;;;;3.47;0.52;;;18.00;99.90;;;;;;4810883;29;20132;-87
2023/08/08 08:41:27;;;;;;;3.03;0.60;;;18.10;99.90;;;;;;4812901;29;20084;-95
2023/08/08 08:46:50;;;;;;;3.20;0.50;;;17.70;99.90;;;;;;4807517;29;20046;-95
2023/08/08 08:49:26;;;;;;;3.28;0.90;;;17.50;99.90;;;;;;4820101;29;20046;-96
2023/08/08 08:59:24;;;;;;;3.17;0.57;;;17.00;99.90;;;;;;5059155;24;20425;-37
2023/08/08 09:01:51;;;;;;;4.47;0.73;;;17.20;99.90;;;;;;4875616;29;20060;-37
2023/08/08 09:04:20;;;;;;;2.28;0.55;;;17.50;99.90;;;;;;4868490;29;20036;-37
2023/08/08 09:06:47;;;;;;;4.40;0.60;;;17.70;99.90;;;;;;4840716;29;20055;-37
2023/08/08 09:09:15;;;;;;;2.33;0.55;;;17.70;99.90;;;;;;4863321;29;20116;-37
2023/08/08 09:11:44;;;;;;;2.10;0.45;;;17.70;99.90;;;;;;4863932;29;20403;-37
2023/08/08 09:14:22;;;;;;;1.55;0.45;;;17.70;99.90;;;;;;4867044;29;20204;-37
2023/08/08 09:16:52;;;;;;;2.42;0.60;;;17.70;99.90;;;;;;4857146;29;20041;-37
2023/08/08 09:19:19;;;;;;;5.00;0.70;;;17.70;99.90;;;;;;4842558;29;20336;-37
2023/08/08 09:21:46;;;;;;;3.70;0.57;;;17.70;99.90;;;;;;4863956;29;20458;-37
2023/08/08 09:24:12;;;;;;;1.23;0.40;;;17.50;99.90;;;;;;4857265;29;20445;-37
2023/08/08 09:26:45;;;;;;;1.13;0.50;;;17.70;99.90;;;;;;4852714;29;20105;-38
2023/08/08 09:29:13;;;;;;;3.75;0.60;;;17.70;99.90;;;;;;4865803;29;20052;-38
2023/08/08 09:31:39;;;;;;;3.30;0.57;;;18.00;99.90;;;;;;4861790;29;20097;-38
2023/08/08 09:34:07;;;;;;;2.92;0.63;;;18.20;99.90;;;;;;4862883;29;20098;-37
2023/08/08 09:36:35;;;;;;;3.33;0.70;;;18.30;99.90;;;;;;4848330;29;20161;-37
2023/08/08 09:39:02;;;;;;;1.77;0.50;;;18.50;99.90;;;;;;4864189;29;20048;-37
2023/08/08 09:41:39;;;;;;;3.15;0.52;;;18.50;99.90;;;;;;4865021;29;20042;-37
2023/08/08 09:44:04;;;;;;;2.67;0.50;;;18.70;99.90;;;;;;4845347;29;20061;-37
2023/08/08 09:46:32;;;;;;;1.60;0.40;;;18.70;99.90;;;;;;4864217;29;20073;-37
2023/08/08 09:48:58;;;;;;;2.78;0.68;;;18.70;99.90;;;;;;4868875;29;20051;-37
2023/08/08 09:51:26;;;;;;;2.90;0.70;;;18.60;99.90;;;;;;4873505;29;20060;-37
2023/08/08 09:53:54;;;;;;;1.13;0.45;;;18.60;99.90;;;;;;4858752;29;20045;-37
2023/08/08 09:56:20;;;;;;;3.50;0.57;;;18.50;99.90;;;;;;4859170;29;20076;-37
2023/08/08 09:58:47;;;;;;;2.95;0.40;;;18.50;99.90;;;;;;4852542;29;20053;-37
2023/08/08 10:01:14;;;;;;;1.42;0.30;;;18.40;99.90;;;;;;4861081;29;20352;-37
2023/08/08 10:03:43;;;;;;;1.60;0.45;;;18.20;99.90;;;;;;4844469;29;20397;-37
2023/08/08 10:06:09;;;;;;;2.08;0.47;;;18.10;99.90;;;;;;4862297;29;20056;-37
2023/08/08 10:08:35;;;;;;;1.67;0.50;;;17.80;99.90;;;;;;4860100;29;20460;-37
2023/08/08 10:11:03;;;;;;;3.23;0.43;;;17.50;99.90;;;;;;4850330;29;20093;-37
2023/08/08 10:13:29;;;;;;;0.70;0.35;;;17.10;99.90;;;;;;4839760;29;20465;-37
2023/08/08 10:15:55;;;;;;;1.50;0.30;;;16.90;99.90;;;;;;4859659;29;20037;-37
2023/08/08 10:18:24;;;;;;;1.50;0.50;;;16.60;99.90;;;;;;4845464;29;20128;-37
2023/08/08 10:20:51;;;;;;;1.85;0.43;;;16.60;99.90;;;;;;4861463;29;20048;-37
2023/08/08 10:23:18;;;;;;;1.83;0.40;;;16.40;99.90;;;;;;4863398;29;20045;-38
2023/08/08 10:25:49;;;;;;;2.10;0.50;;;16.40;99.90;;;;;;4855757;29;20037;-37
2023/08/08 10:28:18;;;;;;;3.20;0.60;;;16.30;99.90;;;;;;4859306;29;20036;-38
2023/08/08 10:30:58;;;;;;;4.38;0.70;;;16.40;99.90;;;;;;4864801;29;20597;-37
2023/08/08 10:33:26;;;;;;;2.90;0.60;;;16.80;99.90;;;;;;4853924;29;20131;-37
2023/08/08 10:36:06;;;;;;;4.38;0.77;;;17.00;99.90;;;;;;4860103;29;20108;-37
2023/08/08 10:38:49;;;;;;;2.28;0.63;;;17.10;99.90;;;;;;4838542;29;20034;-38
2023/08/08 10:41:17;;;;;;;2.28;0.70;;;17.40;99.90;;;;;;4855776;29;20077;-38
2023/08/08 10:43:54;;;;;;;2.45;0.70;;;17.70;99.90;;;;;;4864064;29;20116;-38
2023/08/08 10:46:31;;;;;;;3.13;0.65;;;17.90;99.90;;;;;;4863249;29;20527;-38
2023/08/08 10:49:00;;;;;;;2.17;0.40;;;18.30;99.90;;;;;;4850787;29;20071;-38
2023/08/08 10:51:42;;;;;;;3.08;0.40;;;18.60;99.90;;;;;;4866724;29;20125;-38
2023/08/08 10:54:27;;;;;;;2.58;0.57;;;18.80;99.90;;;;;;4849764;29;20041;-38
2023/08/08 10:57:04;;;;;;;2.72;0.60;;;18.90;99.90;;;;;;4876853;29;20045;-38
2023/08/08 10:59:41;;;;;;;1.63;0.50;;;18.90;99.90;;;;;;4862183;29;20539;-38
2023/08/08 11:02:19;;;;;;;1.75;0.40;;;18.90;99.90;;;;;;4857795;29;20530;-38
2023/08/08 11:04:46;;;;;;;1.65;0.50;;;18.60;99.90;;;;;;4870850;29;20459;-38
2023/08/08 11:07:13;;;;;;;2.40;0.50;;;18.30;99.90;;;;;;4846499;29;20052;-38
2023/08/08 11:09:43;;;;;;;2.58;0.73;;;18.10;99.90;;;;;;4855690;29;20458;-36
2023/08/08 11:12:36;;;;;;;4.35;0.38;;;18.10;99.90;;;;;;4868843;29;20108;-36
2023/08/08 11:18:50;;;;;;;2.22;0.55;;;18.30;99.90;;;;;;4849837;29;20078;-36
2023/08/08 11:21:27;;;;;;;2.65;1.17;;;18.50;99.90;;;;;;4850917;29;20050;-36
2023/08/08 11:24:14;;;;;;;4.47;0.60;;;18.70;99.90;;;;;;4860751;29;20095;-38
2023/08/08 11:26:41;;;;;;;4.65;0.43;;;18.90;99.90;;;;;;4876597;29;20071;-36
2023/08/08 11:29:07;;;;;;;;;;;18.90;99.90;;;;;;4859173;29;20128;-36
2023/08/08 11:31:41;;;;;;;3.38;0.70;;;18.70;99.90;;;;;;4875546;29;19923;-36
2023/08/08 11:34:11;;;;;;;2.45;0.55;;;18.50;99.90;;;;;;4869759;29;20045;-36
2023/08/08 11:36:47;;;;;;;2.95;0.50;;;18.30;99.90;;;;;;4867701;29;20056;-36
2023/08/08 11:39:43;;;;;;;3.30;0.70;;;18.20;99.90;;;;;;4856815;29;20389;-36
2023/08/08 11:42:32;;;;;;;4.22;0.85;;;18.40;99.90;;;;;;4852020;29;20053;-36
2023/08/08 11:45:10;;;;;;;3.75;0.90;;;18.50;99.90;;;;;;4867054;29;20450;-36
2023/08/08 11:47:40;;;;;;;2.72;0.70;;;18.80;99.90;;;;;;4872309;29;20496;-36
2023/08/08 11:50:28;;;;;;;3.17;0.60;;;18.80;99.90;;;;;;4872552;29;20400;-36
2023/08/08 11:52:57;;;;;;;1.70;0.43;;;18.90;99.90;;;;;;4882681;29;20577;-36
2023/08/08 11:55:41;;;;;;;2.42;0.65;;;19.10;99.90;;;;;;4862524;29;20500;-36
2023/08/08 12:01:59;;;;;;;2.75;0.60;;;18.80;99.90;;;;;;4872198;29;20053;-37
2023/08/08 12:04:50;;;;;;;1.38;0.47;;;18.50;99.90;;;;;;4864531;29;20144;-36
2023/08/08 12:07:18;;;;;;;1.75;0.30;;;18.40;99.90;;;;;;4855236;29;20045;-36
2023/08/08 12:09:47;;;;;;;1.83;0.63;;;18.40;99.90;;;;;;4863164;29;20045;-36
2023/08/08 12:12:15;;;;;;;2.28;0.50;;;18.50;99.90;;;;;;4842400;29;20521;-36
2023/08/08 12:15:06;;;;;;;2.53;0.80;;;18.70;99.90;;;;;;4863567;29;20500;-37
2023/08/08 12:17:32;;;;;;;0.90;0.45;;;18.70;99.90;;;;;;4843590;29;20286;-36
2023/08/08 12:20:29;;;;;;;2.85;0.70;;;18.70;99.90;;;;;;4846826;29;20061;-37
2023/08/08 12:23:32;;;;;;;1.65;0.60;;;18.60;99.90;;;;;;4942704;23;20028;-96
2023/08/08 12:25:59;;;;;;;3.45;0.70;;;18.40;99.90;;;;;;4817514;29;20053;-95
2023/08/08 12:28:34;;;;;;;3.67;0.60;;;18.00;99.90;;;;;;4816361;29;20042;-95
2023/08/08 12:31:29;;;;;;;4.68;0.70;;;17.80;99.90;;;;;;4835260;29;20142;-96
2023/08/08 12:34:26;;;;;;;3.33;0.70;;;17.70;99.90;;;;;;4831348;29;20115;-96
2023/08/08 12:37:17;;;;;;;2.97;0.82;;;17.80;99.90;;;;;;4808907;29;20050;-96
2023/08/08 12:40:21;;;;;;;4.07;0.77;;;17.90;99.90;;;;;;4816414;29;20058;-96
2023/08/08 12:42:54;;;;;;;3.58;0.60;;;18.00;99.90;;;;;;4805859;29;20041;-95
2023/08/08 12:45:38;;;;;;;1.92;0.60;;;18.00;99.90;;;;;;4832040;29;20037;-96
2023/08/08 12:48:16;;;;;;;3.17;0.45;;;18.00;99.90;;;;;;4837160;29;20050;-96
2023/08/08 12:50:45;;;;;;;4.22;0.55;;;18.00;99.90;;;;;;4817621;29;20048;-96
2023/08/08 12:53:25;;;;;;;2.50;0.60;;;18.00;99.90;;;;;;4807515;29;20042;-96
2023/08/08 12:56:06;;;;;;;3.53;0.82;;;18.00;99.90;;;;;;4837063;29;20097;-96
2023/08/08 12:58:43;;;;;;;2.88;0.73;;;18.10;99.90;;;;;;4812102;29;20483;-95
2023/08/08 13:01:15;;;;;;;2.50;0.68;;;18.30;99.90;;;;;;4811422;29;20054;-96
2023/08/08 13:03:41;;;;;;;3.17;0.80;;;18.10;99.90;;;;;;4827951;29;20050;-96
2023/08/08 13:06:11;;;;;;;2.30;0.50;;;18.10;99.90;;;;;;4810741;29;20129;-96
2023/08/08 13:08:57;;;;;;;2.13;0.40;;;18.10;99.90;;;;;;4804275;29;20050;-96
2023/08/08 13:11:45;;;;;;;2.60;0.70;;;18.10;99.90;;;;;;4823910;29;20525;-96
2023/08/08 13:14:11;;;;;;;2.72;0.75;;;18.20;99.90;;;;;;4802442;29;20042;-96
2023/08/08 13:16:39;;;;;;;3.40;0.60;;;18.20;99.90;;;;;;4815493;29;20129;-96
2023/08/08 13:22:21;;;;;;;2.13;0.43;;;18.10;99.90;;;;;;4830652;29;20045;-96
2023/08/08 13:25:37;;;;;;;;;;;;;;;;;;;;;
2023/08/08 13:29:04;;;;;;;1.80;0.60;;;17.90;99.90;;;;;;4837411;29;20061;-96
2023/08/08 13:31:46;;;;;;;4.95;0.80;;;17.80;99.90;;;;;;4810362;29;20060;-96
2023/08/08 13:34:27;;;;;;;3.42;0.68;;;17.70;99.90;;;;;;4834713;29;20052;-95
2023/08/08 13:36:53;;;;;;;2.75;0.70;;;17.70;99.90;;;;;;4813999;29;20045;-96
2023/08/08 13:39:19;;;;;;;2.38;0.55;;;17.60;99.90;;;;;;4816918;29;20034;-96
2023/08/08 13:42:18;;;;;;;2.33;0.57;;;17.90;99.90;;;;;;4818107;29;20053;-96
2023/08/08 13:44:52;;;;;;;3.25;0.70;;;17.90;99.90;;;;;;4796172;29;20585;-96
2023/08/08 13:47:21;;;;;;;3.30;0.75;;;17.80;99.90;;;;;;4821349;29;20106;-96
2023/08/08 13:49:53;;;;;;;4.05;0.60;;;17.80;99.90;;;;;;4830913;29;20058;-96
2023/08/08 13:52:21;;;;;;;1.70;0.50;;;17.60;99.90;;;;;;4803933;29;20050;-96
2023/08/08 13:55:09;;;;;;;3.40;0.57;;;17.90;99.90;;;;;;4812733;29;20041;-96
2023/08/08 13:57:58;;;;;;;1.75;0.45;;;18.10;99.90;;;;;;4815949;29;20113;-96
2023/08/08 14:00:49;;;;;;;2.58;0.70;;;18.20;99.90;;;;;;4820244;29;20053;-96